KPNS/PNS METAR and TAF weather

Enter ICAO airport designator
Station Type Date Time Source
KPNS METAR 2019/12/09 13:53 UTC NOAA

KPNS 091353Z 22003KT 1/4SM R17/1200V4500FT FG VV003 17/17 A3002 RMK AO2 SLP167 T01670167 $


Station Type Date Time Source
KPNS Decoded METAR 2019/12/09 13:53 UTC NOAA

PENSACOLA REGIONAL AIRPORT, FL, United States (KPNS) 30-29N 087-11W 38M
Dec 09, 2019 - 08:53 AM EST / 2019.12.09 1353 UTC
Wind: from the SW (220 degrees) at 3 MPH (3 KT) (direction variable):0
Visibility: 1/4 mile(s):0
Sky conditions: obscured
Weather: fog
Temperature: 62.1 F (16.7 C)
Dew Point: 62.1 F (16.7 C)
Relative Humidity: 100%
Pressure (altimeter): 30.02 in. Hg (1016 hPa)
ob: KPNS 091353Z 22003KT 1/4SM R17/1200V4500FT FG VV003 17/17 A3002 RMK AO2 SLP167 T01670167
cycle: 14

Station Type Date Time Source
KPNS TAF 2019/12/09 14:52 UTC NOAA

TAF
AMD KPNS 091350Z 0914/1012 22003KT 1/4SM FG VV003
FM091500 20011KT P6SM BKN050
FM100300 18006KT 3SM BR SCT015 BKN040

Example: see airport list